CheckWX is a tool to help pilots better visualize weather data.  It is not intended as a substitute for an official pre-flight weather briefing.

01:56:12 UTC

KORF TAF
Norfolk International Airport
Norfolk, Virginia, USA
KORF 182337Z 1900/1924 03011G20KT P6SM -RA BKN030 OVC050 FM190300 04008KT P6SM SCT100 FM190900 03008KT P6SM SKC

Mar-19@
00:00 UTC

Mar-19 @ 00:00 UTC

Mar-19@
03:00 UTC

Mar-19 @ 03:00 UTC

KORF 182337Z 1900/1924 03011G20KT P6SM -RA BKN030 OVC050
Wind
  • 030° at 11 KTS
  • {Gusting to 20 KTS
Conditions
Light Rain
Cloud Levels
  • Broken at 3,000' AGL
  • Overcast at 5,000' AGL

Mar-19@
03:00 UTC

Mar-19 @ 03:00 UTC

Mar-19@
09:00 UTC

Mar-19 @ 09:00 UTC

FM190300 04008KT P6SM SCT100

From

From Standard forecast or significant change

Wind
  • 040° at 8 KTS
Cloud Levels
  • Scattered at 10,000' AGL

Mar-19@
09:00 UTC

Mar-19 @ 09:00 UTC

Mar-20@
00:00 UTC

Mar-20 @ 00:00 UTC

FM190900 03008KT P6SM SKC

From

From Standard forecast or significant change

Wind
  • 030° at 8 KTS
Cloud Levels
  • Clear skies